createdAt,value
2023-04-29T00:01:09.177Z,100008.50
2023-04-29T00:02:41.945Z,100010.19
2023-04-29T00:04:14.666Z,100019.53
2023-04-29T00:05:47.014Z,100015.25
2023-04-29T00:07:19.631Z,100015.25
2023-04-29T00:08:52.902Z,100016.94
2023-04-29T00:10:25.069Z,100020.34
2023-04-29T00:11:57.144Z,100016.09
2023-04-29T00:13:29.409Z,100009.25
2023-04-29T00:15:03.354Z,100012.69
2023-04-29T00:16:35.571Z,100003.31
2023-04-29T00:18:07.723Z,100003.31
2023-04-29T00:19:39.905Z,99993.09
2023-04-29T00:21:12.040Z,100000.78
2023-04-29T00:22:44.334Z,99992.22
2023-04-29T00:24:16.444Z,99991.34
2023-04-29T00:25:48.537Z,99995.59
2023-04-29T00:27:20.668Z,99992.16
2023-04-29T00:28:52.879Z,99986.16
2023-04-29T00:30:24.890Z,99982.72
2023-04-29T00:31:56.968Z,99984.44
2023-04-29T00:33:28.971Z,99981.00
2023-04-29T00:35:01.169Z,99984.44
2023-04-29T00:36:33.710Z,99975.00
2023-04-29T00:38:08.542Z,99977.53
2023-04-29T00:39:40.619Z,99979.22
2023-04-29T00:41:12.892Z,99987.78
2023-04-29T00:42:45.152Z,99972.38
2023-04-29T00:44:18.062Z,99975.84
2023-04-29T00:45:51.297Z,99972.41
2023-04-29T00:47:23.489Z,99971.56
2023-04-29T00:48:58.562Z,99968.13
2023-04-29T00:50:31.252Z,99962.09
2023-04-29T00:52:03.356Z,99958.63
2023-04-29T00:53:35.504Z,99969.75
2023-04-29T00:55:09.402Z,99970.63
2023-04-29T00:56:44.256Z,99974.06
2023-04-29T00:58:18.146Z,99962.09
2023-04-29T00:59:50.917Z,99955.25
2023-04-29T01:01:23.832Z,99954.34
2023-04-29T01:02:57.561Z,99956.88
2023-04-29T01:04:30.049Z,99957.72
2023-04-29T01:06:26.259Z,99959.47
2023-04-29T01:08:07.371Z,99956.09
2023-04-29T01:09:45.041Z,99961.28
2023-04-29T01:11:23.699Z,99958.75
2023-04-29T01:13:12.267Z,99956.19
2023-04-29T01:14:49.232Z,99966.47
2023-04-29T01:16:26.122Z,99957.06
2023-04-29T01:18:06.486Z,99963.13
2023-04-29T01:19:58.094Z,99964.84
2023-04-29T01:21:32.444Z,99952.84
2023-04-29T01:23:04.586Z,99949.41
2023-04-29T01:24:36.698Z,99955.41
2023-04-29T01:26:08.781Z,99954.53
2023-04-29T01:27:55.946Z,99952.84
2023-04-29T01:29:38.710Z,99948.56
2023-04-29T01:31:26.471Z,99951.97
2023-04-29T01:33:07.450Z,99950.25
2023-04-29T01:34:51.368Z,99948.50
2023-04-29T01:37:01.292Z,99949.41
2023-04-29T01:39:14.997Z,99946.84
2023-04-29T01:40:57.527Z,99945.97
2023-04-29T01:42:38.588Z,99946.81
2023-04-29T01:44:18.981Z,99948.56
2023-04-29T01:45:53.837Z,99945.09
2023-04-29T01:47:26.035Z,99947.63
2023-04-29T01:48:58.079Z,99945.06
2023-04-29T01:50:33.232Z,99942.50
2023-04-29T01:52:05.681Z,99948.50
2023-04-29T01:53:37.906Z,99939.94
2023-04-29T01:55:11.104Z,99938.19
2023-04-29T01:56:43.663Z,99941.66
2023-04-29T01:58:15.852Z,99936.47
2023-04-29T01:59:48.420Z,99933.94
2023-04-29T02:01:20.674Z,99934.75
2023-04-29T02:02:53.044Z,99939.91
2023-04-29T02:04:25.957Z,99941.66
2023-04-29T02:05:59.061Z,99949.31
2023-04-29T02:07:31.399Z,99938.22
2023-04-29T02:09:03.630Z,99943.31
2023-04-29T02:10:35.737Z,99933.94
2023-04-29T02:12:08.148Z,99933.94
2023-04-29T02:13:41.089Z,99937.31
2023-04-29T02:15:13.352Z,99927.94
2023-04-29T02:16:46.224Z,99936.47
2023-04-29T02:18:18.432Z,99937.28
2023-04-29T02:19:50.936Z,99931.31
2023-04-29T02:21:23.349Z,99928.72
2023-04-29T02:22:55.650Z,99928.66
2023-04-29T02:24:27.733Z,99923.50
2023-04-29T02:26:00.160Z,99924.31
2023-04-29T02:27:32.260Z,99925.13
2023-04-29T02:29:04.387Z,99930.19
2023-04-29T02:30:36.460Z,99929.28
2023-04-29T02:32:08.742Z,99936.06
2023-04-29T02:33:41.789Z,99931.81
2023-04-29T02:35:13.920Z,99936.09
2023-04-29T02:36:45.958Z,99933.50
2023-04-29T02:38:18.461Z,99931.75
2023-04-29T02:39:50.733Z,99929.13
2023-04-29T02:41:23.299Z,99929.13
2023-04-29T02:42:55.457Z,99924.03
2023-04-29T02:44:27.744Z,99926.56
2023-04-29T02:46:00.801Z,99927.38
2023-04-29T02:47:33.117Z,99929.94
2023-04-29T02:49:06.343Z,99936.78
2023-04-29T02:50:38.384Z,99939.38
2023-04-29T02:52:10.392Z,99939.38
2023-04-29T02:53:42.495Z,99933.38
2023-04-29T02:55:14.609Z,99935.94
2023-04-29T02:56:46.782Z,99935.09
2023-04-29T02:58:18.851Z,99934.19
2023-04-29T02:59:51.876Z,99939.31
2023-04-29T03:01:24.704Z,99941.00
2023-04-29T03:02:56.974Z,99940.16
2023-04-29T03:04:29.347Z,99944.44
2023-04-29T03:06:01.575Z,99935.88
2023-04-29T03:07:33.882Z,99940.19
2023-04-29T03:09:06.077Z,99939.31
2023-04-29T03:10:41.388Z,99954.72
2023-04-29T03:12:13.942Z,99953.88
2023-04-29T03:13:46.530Z,99963.34
2023-04-29T03:15:18.615Z,99953.97
2023-04-29T03:16:50.945Z,99966.00
2023-04-29T03:18:23.159Z,99968.59
2023-04-29T03:19:55.310Z,99976.28
2023-04-29T03:21:28.096Z,99967.72
2023-04-29T03:23:01.441Z,99972.00
2023-04-29T03:24:33.542Z,99962.59
2023-04-29T03:26:06.070Z,99965.16
2023-04-29T03:27:38.330Z,99957.47
2023-04-29T03:29:10.546Z,99948.91
2023-04-29T03:30:42.763Z,99962.63
2023-04-29T03:32:14.875Z,99955.75
2023-04-29T03:33:47.085Z,99953.16
2023-04-29T03:35:19.293Z,99965.13
2023-04-29T03:36:54.645Z,99966.81
2023-04-29T03:40:06.728Z,99969.41
2023-04-29T03:41:39.064Z,99972.75
2023-04-29T03:43:11.356Z,99974.50
2023-04-29T03:44:43.441Z,99971.91
2023-04-29T03:46:15.624Z,99972.78
2023-04-29T03:47:47.757Z,99961.69
2023-04-29T03:49:20.021Z,99959.16
2023-04-29T03:50:52.215Z,99966.06
2023-04-29T03:52:24.407Z,99959.22
2023-04-29T03:53:58.273Z,99960.13
2023-04-29T03:55:30.536Z,99961.00
2023-04-29T03:57:05.265Z,99955.03
2023-04-29T03:58:37.440Z,99956.78
2023-04-29T04:00:10.220Z,99960.19
2023-04-29T04:01:42.506Z,99963.66
2023-04-29T04:03:14.850Z,99963.66
2023-04-29T04:04:47.480Z,99961.09
2023-04-29T04:06:19.882Z,99970.53
2023-04-29T04:07:52.985Z,99965.44
2023-04-29T04:09:25.039Z,99966.31
2023-04-29T04:11:03.282Z,99967.19
2023-04-29T04:12:35.481Z,99968.97
2023-04-29T04:14:07.939Z,99965.56
2023-04-29T04:15:40.056Z,99979.34
2023-04-29T04:17:12.264Z,99978.56
2023-04-29T04:18:44.337Z,99966.59
2023-04-29T04:20:16.517Z,99972.66
2023-04-29T04:21:48.674Z,99977.81
2023-04-29T04:23:20.838Z,99974.41
2023-04-29T04:24:55.691Z,99971.84
2023-04-29T04:26:27.758Z,99976.13
2023-04-29T04:27:59.853Z,99968.47
2023-04-29T04:29:32.040Z,99965.88
2023-04-29T04:31:06.017Z,99959.94
2023-04-29T04:32:39.653Z,99957.38
2023-04-29T04:34:11.951Z,99954.81
2023-04-29T04:35:44.532Z,99950.53
2023-04-29T04:37:17.055Z,99947.13
2023-04-29T04:38:49.161Z,99945.44
2023-04-29T04:40:21.454Z,99941.16
2023-04-29T04:41:53.565Z,99943.72
2023-04-29T04:43:25.856Z,99948.91
2023-04-29T04:44:58.050Z,99953.16
2023-04-29T04:46:30.197Z,99943.75
2023-04-29T04:48:02.379Z,99948.06
2023-04-29T04:49:34.539Z,99942.06
2023-04-29T04:51:11.373Z,99948.13
2023-04-29T04:52:43.533Z,99942.97
2023-04-29T04:54:15.780Z,99944.69
2023-04-29T04:55:48.008Z,99954.13
2023-04-29T04:57:20.088Z,99953.25
2023-04-29T04:58:52.146Z,99954.16
2023-04-29T05:00:24.254Z,99958.41
2023-04-29T05:01:56.329Z,99954.13
2023-04-29T05:03:29.129Z,99954.13
2023-04-29T05:05:01.602Z,99954.97
2023-04-29T05:06:33.728Z,99950.66
2023-04-29T05:08:06.329Z,99948.06
2023-04-29T05:09:38.395Z,99945.44
2023-04-29T05:11:21.499Z,99947.13
2023-04-29T05:12:53.570Z,99940.19
2023-04-29T05:14:26.898Z,99939.28
2023-04-29T05:15:58.947Z,99941.81
2023-04-29T05:17:31.220Z,99938.31
2023-04-29T05:19:03.342Z,99934.81
2023-04-29T05:20:35.481Z,99933.84
2023-04-29T05:22:07.709Z,99931.19
2023-04-29T05:23:39.945Z,99930.19
2023-04-29T05:25:12.268Z,99936.13
2023-04-29T05:26:44.611Z,99934.31
2023-04-29T05:28:16.778Z,99925.69
2023-04-29T05:29:48.858Z,99922.97
2023-04-29T05:31:21.821Z,99930.63
2023-04-29T05:32:54.071Z,99933.13
2023-04-29T05:34:26.847Z,99929.63
2023-04-29T05:35:58.990Z,99928.66
2023-04-29T05:37:32.493Z,99934.59
2023-04-29T05:39:04.895Z,99945.63
2023-04-29T05:40:37.011Z,99935.28
2023-04-29T05:42:09.095Z,99944.59
2023-04-29T05:43:41.325Z,99935.94
2023-04-29T05:45:13.472Z,99936.69
2023-04-29T05:46:46.782Z,99937.47
2023-04-29T05:48:18.863Z,99949.44
2023-04-29T05:49:51.326Z,99941.63
2023-04-29T05:51:23.774Z,99943.22
2023-04-29T05:52:56.918Z,99942.28
2023-04-29T05:54:29.028Z,99927.50
2023-04-29T05:56:01.320Z,99925.66
2023-04-29T05:57:33.562Z,99929.00
2023-04-29T05:59:05.691Z,99928.91
2023-04-29T06:00:37.837Z,99921.88
2023-04-29T06:02:11.406Z,99930.38
2023-04-29T06:03:44.122Z,99921.53
2023-04-29T06:05:16.615Z,99917.97
2023-04-29T06:06:49.226Z,99920.41
2023-04-29T06:08:21.667Z,99908.16
2023-04-29T06:09:54.338Z,99913.16
2023-04-29T06:11:27.253Z,99910.31
2023-04-29T06:12:59.505Z,99913.53
2023-04-29T06:14:31.576Z,99915.16
2023-04-29T06:16:04.086Z,99911.56
2023-04-29T06:17:36.269Z,99919.16
2023-04-29T06:19:08.327Z,99914.72
2023-04-29T06:20:40.478Z,99922.38
2023-04-29T06:22:12.810Z,99911.88
2023-04-29T06:23:45.707Z,99917.84
2023-04-29T06:25:20.272Z,99911.72
2023-04-29T06:26:52.785Z,99914.31
2023-04-29T06:28:25.139Z,99909.84
2023-04-29T06:29:57.213Z,99911.34
2023-04-29T06:31:29.727Z,99917.25
2023-04-29T06:33:02.063Z,99913.59
2023-04-29T06:34:34.435Z,99910.88
2023-04-29T06:36:06.775Z,99908.94
2023-04-29T06:37:38.937Z,99914.00
2023-04-29T06:39:11.000Z,99914.69
2023-04-29T06:40:43.218Z,99912.88
2023-04-29T06:43:49.058Z,99916.19
2023-04-29T06:45:21.250Z,99902.19
2023-04-29T06:46:53.622Z,99907.13
2023-04-29T06:48:25.975Z,99910.38
2023-04-29T06:49:58.096Z,99906.66
2023-04-29T06:51:30.343Z,99905.56
2023-04-29T06:53:02.425Z,99899.44
2023-04-29T06:54:34.757Z,99904.56
2023-04-29T06:56:07.352Z,99901.69
2023-04-29T06:57:39.571Z,99895.53
2023-04-29T06:59:13.066Z,99895.34
2023-04-29T07:00:46.901Z,99896.88
2023-04-29T07:02:19.374Z,99901.00
2023-04-29T07:03:51.780Z,99899.09
2023-04-29T07:05:24.205Z,99901.63
2023-04-29T07:06:56.501Z,99900.66
2023-04-29T07:08:29.177Z,99897.06
2023-04-29T07:10:01.438Z,99896.13
2023-04-29T07:11:33.965Z,99888.28
2023-04-29T07:13:06.117Z,99889.03
2023-04-29T07:14:38.496Z,99884.63
2023-04-29T07:16:22.049Z,99889.50
2023-04-29T07:17:54.554Z,99888.69
2023-04-29T07:19:26.791Z,99880.66
2023-04-29T07:21:02.671Z,99885.69
2023-04-29T07:22:34.796Z,99881.28
2023-04-29T07:24:07.280Z,99879.34
2023-04-29T07:25:39.358Z,99883.56
2023-04-29T07:27:11.807Z,99891.03
2023-04-29T07:28:44.862Z,99891.59
2023-04-29T07:30:17.182Z,99881.03
2023-04-29T07:31:49.629Z,99880.84
2023-04-29T07:33:21.802Z,99879.59
2023-04-29T07:34:54.333Z,99884.59
2023-04-29T07:36:28.721Z,99874.81
2023-04-29T07:38:00.843Z,99879.75
2023-04-29T07:39:33.207Z,99878.63
2023-04-29T07:41:05.430Z,99874.72
2023-04-29T07:42:37.773Z,99869.22
2023-04-29T07:44:10.022Z,99874.03
2023-04-29T07:45:42.230Z,99870.25
2023-04-29T07:47:14.516Z,99869.06
2023-04-29T07:48:46.896Z,99860.78
2023-04-29T07:50:19.229Z,99866.50
2023-04-29T07:51:51.419Z,99867.13
2023-04-29T07:53:23.785Z,99868.59
2023-04-29T07:54:59.091Z,99863.09
2023-04-29T07:56:32.221Z,99868.06
2023-04-29T07:58:04.521Z,99870.63
2023-04-29T07:59:36.980Z,99864.38
2023-04-29T08:01:12.645Z,99865.97
2023-04-29T08:02:45.264Z,99863.66
2023-04-29T08:04:17.883Z,99866.91
2023-04-29T08:05:51.716Z,99867.66
2023-04-29T08:07:26.526Z,99870.06
2023-04-29T08:08:58.601Z,99868.25
2023-04-29T08:10:31.375Z,99866.38
2023-04-29T08:12:03.555Z,99870.56
2023-04-29T08:13:35.724Z,99870.44
2023-04-29T08:15:09.770Z,99864.09
2023-04-29T08:16:42.546Z,99862.91
2023-04-29T08:18:14.675Z,99869.66
2023-04-29T08:19:47.228Z,99861.53
2023-04-29T08:21:19.867Z,99854.22
2023-04-29T08:22:52.181Z,99861.63
2023-04-29T08:24:24.411Z,99855.22
2023-04-29T08:25:56.638Z,99849.38
2023-04-29T08:27:29.027Z,99855.91
2023-04-29T08:29:01.347Z,99850.28
2023-04-29T08:30:34.086Z,99843.28
2023-04-29T08:32:06.666Z,99848.13
2023-04-29T08:33:39.043Z,99843.66
2023-04-29T08:35:11.312Z,99843.41
2023-04-29T08:36:43.377Z,99844.38
2023-04-29T08:38:16.320Z,99849.16
2023-04-29T08:39:48.622Z,99847.31
2023-04-29T08:41:20.910Z,99844.63
2023-04-29T08:42:53.968Z,99846.88
2023-04-29T08:44:30.608Z,99847.38
2023-04-29T08:46:03.663Z,99850.06
2023-04-29T08:47:36.268Z,99844.06
2023-04-29T08:49:08.481Z,99844.06
2023-04-29T08:50:42.397Z,99842.94
2023-04-29T08:52:14.666Z,99844.84
2023-04-29T08:53:46.822Z,99841.09
2023-04-29T08:55:19.329Z,99838.34
2023-04-29T08:56:52.500Z,99835.59
2023-04-29T08:58:26.908Z,99831.16
2023-04-29T09:00:01.443Z,99830.84
2023-04-29T09:01:34.029Z,99834.25
2023-04-29T09:03:35.801Z,99837.06
2023-04-29T09:05:11.846Z,99826.59
2023-04-29T09:06:44.326Z,99834.44
2023-04-29T09:08:17.508Z,99827.97
2023-04-29T09:09:50.369Z,99824.22
2023-04-29T09:11:23.072Z,99824.16
2023-04-29T09:12:59.011Z,99812.22
2023-04-29T09:14:33.965Z,99822.38
2023-04-29T09:19:12.308Z,99812.53
2023-04-29T09:20:44.578Z,99801.53
2023-04-29T09:22:16.885Z,99810.63
2023-04-29T09:23:55.758Z,99807.59
2023-04-29T09:25:28.387Z,99800.50
2023-04-29T09:27:01.362Z,99795.72
2023-04-29T09:28:34.361Z,99802.13
2023-04-29T09:30:07.168Z,99801.81
2023-04-29T09:31:42.570Z,99803.66
2023-04-29T09:33:15.906Z,99803.59
2023-04-29T09:34:47.835Z,99795.66
2023-04-29T09:36:49.230Z,99795.66
2023-04-29T09:38:22.662Z,99789.84
2023-04-29T09:39:55.703Z,99780.81
2023-04-29T09:41:28.003Z,99780.00
2023-04-29T09:43:00.205Z,99776.53
2023-04-29T09:44:38.440Z,99779.75
2023-04-29T09:46:13.892Z,99778.91
2023-04-29T09:47:46.246Z,99783.28
2023-04-29T09:49:29.168Z,99776.78
2023-04-29T09:51:03.679Z,99776.88
2023-04-29T09:52:44.907Z,99778.25
2023-04-29T09:56:03.498Z,99763.03
2023-04-29T09:57:45.349Z,99765.25
2023-04-29T09:59:18.468Z,99765.91
2023-04-29T10:00:50.602Z,99764.88
2023-04-29T10:02:24.380Z,99770.13
2023-04-29T10:03:57.551Z,99765.06
2023-04-29T10:05:31.112Z,99765.25
2023-04-29T10:07:04.070Z,99764.16
2023-04-29T10:08:36.462Z,99761.69
2023-04-29T10:10:11.294Z,99763.38
2023-04-29T10:11:45.083Z,99752.28
2023-04-29T10:13:17.320Z,99753.88
2023-04-29T10:15:04.978Z,99755.16
2023-04-29T10:16:42.357Z,99756.78
2023-04-29T10:18:22.219Z,99750.09
2023-04-29T10:20:07.854Z,99746.44
2023-04-29T10:21:40.259Z,99746.25
2023-04-29T10:23:14.974Z,99740.03
2023-04-29T10:24:48.528Z,99749.81
2023-04-29T10:26:21.497Z,99743.56
2023-04-29T10:27:54.280Z,99736.53
2023-04-29T10:29:28.960Z,99736.28
2023-04-29T10:31:05.127Z,99731.22
2023-04-29T10:34:14.411Z,99735.34
2023-04-29T10:35:49.826Z,99733.25
2023-04-29T10:37:22.338Z,99734.94
2023-04-29T10:38:57.824Z,99737.22
2023-04-29T10:40:49.211Z,99739.41
2023-04-29T10:42:41.520Z,99726.63
2023-04-29T10:44:14.679Z,99730.13
2023-04-29T10:45:47.117Z,99730.53
2023-04-29T10:47:20.486Z,99725.69
2023-04-29T10:48:56.692Z,99724.38
2023-04-29T10:50:33.381Z,99720.81
2023-04-29T10:52:05.736Z,99718.19
2023-04-29T10:54:03.946Z,99712.97
2023-04-29T10:55:39.525Z,99713.38
2023-04-29T10:57:21.185Z,99705.22
2023-04-29T10:58:53.356Z,99716.38
2023-04-29T11:00:31.063Z,99711.44
2023-04-29T11:02:03.222Z,99715.75
2023-04-29T11:03:56.106Z,99707.84
2023-04-29T11:05:34.972Z,99710.09
2023-04-29T11:07:07.193Z,99712.34
2023-04-29T11:08:46.286Z,99709.47
2023-04-29T11:10:18.666Z,99710.41
2023-04-29T11:11:56.791Z,99708.66
2023-04-29T11:13:31.103Z,99716.28
2023-04-29T11:15:06.602Z,99714.59
2023-04-29T11:16:38.883Z,99712.88
2023-04-29T11:18:12.174Z,99704.44
2023-04-29T11:19:49.512Z,99705.38
2023-04-29T11:21:22.910Z,99709.88
2023-04-29T11:22:55.734Z,99707.53
2023-04-29T11:24:28.100Z,99703.38
2023-04-29T11:26:00.535Z,99703.66
2023-04-29T11:27:33.496Z,99704.59
2023-04-29T11:29:06.677Z,99704.97
2023-04-29T11:30:39.242Z,99704.59
2023-04-29T11:32:11.464Z,99696.41
2023-04-29T11:33:43.817Z,99698.00
2023-04-29T11:35:17.729Z,99706.53
2023-04-29T11:36:50.014Z,99704.84
2023-04-29T11:38:26.591Z,99702.03
2023-04-29T11:40:01.724Z,99701.84
2023-04-29T11:41:34.071Z,99697.63
2023-04-29T11:43:06.950Z,99699.34
2023-04-29T11:44:39.111Z,99700.09
2023-04-29T11:46:15.402Z,99698.38
2023-04-29T11:47:48.817Z,99695.31
2023-04-29T11:49:24.137Z,99699.22
2023-04-29T11:51:00.469Z,99698.59
2023-04-29T11:52:33.567Z,99702.44
2023-04-29T11:54:07.611Z,99699.81
2023-04-29T11:55:43.715Z,99694.63
2023-04-29T11:57:16.123Z,99698.22
2023-04-29T11:58:48.220Z,99693.31
2023-04-29T12:00:20.687Z,99691.50
2023-04-29T12:01:52.971Z,99692.91
2023-04-29T12:03:25.340Z,99688.84
2023-04-29T12:04:59.008Z,99680.50
2023-04-29T12:06:32.144Z,99679.91
2023-04-29T12:08:04.584Z,99680.66
2023-04-29T12:09:44.359Z,99679.44
2023-04-29T12:11:17.684Z,99685.53
2023-04-29T12:12:49.582Z,99677.66
2023-04-29T12:14:22.054Z,99686.81
2023-04-29T12:15:54.693Z,99681.00
2023-04-29T12:17:26.896Z,99683.50
2023-04-29T12:18:59.972Z,99683.41
2023-04-29T12:20:32.288Z,99680.31
2023-04-29T12:22:06.733Z,99676.66
2023-04-29T12:23:41.801Z,99681.91
2023-04-29T12:25:14.176Z,99681.34
2023-04-29T12:26:47.368Z,99683.34
2023-04-29T12:28:20.156Z,99683.34
2023-04-29T12:29:55.268Z,99685.03
2023-04-29T12:31:36.973Z,99680.03
2023-04-29T12:33:10.240Z,99681.50
2023-04-29T12:34:42.448Z,99682.56
2023-04-29T12:36:19.287Z,99680.03
2023-04-29T12:37:51.969Z,99679.38
2023-04-29T12:39:24.162Z,99679.38
2023-04-29T12:40:57.467Z,99675.66
2023-04-29T12:42:35.261Z,99676.22
2023-04-29T12:44:08.279Z,99673.09
2023-04-29T12:45:41.184Z,99671.00
2023-04-29T12:47:14.209Z,99674.56
2023-04-29T12:48:47.840Z,99680.22
2023-04-29T12:50:20.379Z,99678.72
2023-04-29T12:51:52.481Z,99680.69
2023-04-29T12:53:24.937Z,99677.19
2023-04-29T12:54:57.823Z,99682.34
2023-04-29T12:56:33.345Z,99677.09
2023-04-29T12:58:06.498Z,99675.50
2023-04-29T12:59:39.400Z,99676.69
2023-04-29T13:01:12.077Z,99673.31
2023-04-29T13:02:44.383Z,99678.66
2023-04-29T13:04:16.927Z,99675.94
2023-04-29T13:05:51.909Z,99677.56
2023-04-29T13:07:25.062Z,99664.34
2023-04-29T13:08:57.366Z,99666.31
2023-04-29T13:10:29.616Z,99675.94
2023-04-29T13:12:02.500Z,99665.34
2023-04-29T13:13:35.033Z,99665.16
2023-04-29T13:15:11.853Z,99668.66
2023-04-29T13:16:44.081Z,99665.53
2023-04-29T13:18:16.265Z,99669.09
2023-04-29T13:19:51.737Z,99663.50
2023-04-29T13:21:24.464Z,99668.06
2023-04-29T13:22:56.638Z,99668.75
2023-04-29T13:24:28.849Z,99675.50
2023-04-29T13:26:01.469Z,99672.97
2023-04-29T13:27:35.257Z,99668.56
2023-04-29T13:29:07.765Z,99672.88
2023-04-29T13:30:40.227Z,99682.63
2023-04-29T13:32:12.552Z,99678.56
2023-04-29T13:33:44.875Z,99671.88
2023-04-29T13:35:17.295Z,99672.81
2023-04-29T13:36:49.464Z,99667.06
2023-04-29T13:38:22.905Z,99668.84
2023-04-29T13:39:57.508Z,99670.78
2023-04-29T13:41:33.600Z,99671.94
2023-04-29T13:43:09.566Z,99668.38
2023-04-29T13:44:52.418Z,99671.41
2023-04-29T13:46:25.905Z,99674.91
2023-04-29T13:48:09.456Z,99674.50
2023-04-29T13:52:09.815Z,99677.34
2023-04-29T13:53:51.435Z,99673.34
2023-04-29T13:59:59.278Z,99676.31
2023-04-29T14:03:08.200Z,99679.53
2023-04-29T14:04:40.698Z,99672.00
2023-04-29T14:06:13.069Z,99672.63
2023-04-29T14:07:45.351Z,99676.16
2023-04-29T14:09:19.072Z,99671.16
2023-04-29T14:10:51.274Z,99666.94
2023-04-29T14:12:23.505Z,99678.31
2023-04-29T14:13:55.793Z,99672.31
2023-04-29T14:15:28.526Z,99672.53
2023-04-29T14:17:01.725Z,99676.94
2023-04-29T14:18:33.983Z,99674.72
2023-04-29T14:20:06.862Z,99671.97
2023-04-29T14:21:39.097Z,99677.28
2023-04-29T14:23:11.553Z,99676.25
2023-04-29T14:24:43.736Z,99682.81
2023-04-29T14:26:27.741Z,99684.81
2023-04-29T14:28:02.709Z,99684.03
2023-04-29T14:29:34.903Z,99687.00
2023-04-29T14:31:07.075Z,99699.72
2023-04-29T14:32:39.301Z,99691.19
2023-04-29T14:34:11.408Z,99698.50
2023-04-29T14:35:43.510Z,99705.69
2023-04-29T14:37:15.786Z,99696.56
2023-04-29T14:38:47.881Z,99695.97
2023-04-29T14:40:20.132Z,99695.41
2023-04-29T14:41:52.346Z,99701.19
2023-04-29T14:43:24.727Z,99694.22
2023-04-29T14:44:57.342Z,99695.22
2023-04-29T14:46:30.034Z,99697.91
2023-04-29T14:48:02.235Z,99698.25
2023-04-29T14:49:34.568Z,99698.56
2023-04-29T14:51:06.952Z,99702.06
2023-04-29T14:52:39.161Z,99702.16
2023-04-29T14:54:12.169Z,99701.44
2023-04-29T14:55:44.398Z,99692.94
2023-04-29T14:57:16.650Z,99693.81
2023-04-29T14:58:49.045Z,99694.16
2023-04-29T15:00:21.912Z,99688.97
2023-04-29T15:01:54.094Z,99677.63
2023-04-29T15:03:26.767Z,99679.38
2023-04-29T15:04:59.160Z,99682.75
2023-04-29T15:06:32.753Z,99680.16
2023-04-29T15:08:05.169Z,99668.94
2023-04-29T15:09:37.336Z,99680.31
2023-04-29T15:11:09.532Z,99675.06
2023-04-29T15:12:41.890Z,99674.28
2023-04-29T15:14:14.021Z,99681.16
2023-04-29T15:15:46.388Z,99676.75
2023-04-29T15:17:19.074Z,99681.16
2023-04-29T15:18:51.155Z,99683.97
2023-04-29T15:20:23.429Z,99682.13
2023-04-29T15:21:55.560Z,99682.19
2023-04-29T15:23:27.683Z,99673.78
2023-04-29T15:24:59.817Z,99680.63
2023-04-29T15:26:33.493Z,99687.47
2023-04-29T15:28:06.216Z,99685.06
2023-04-29T15:29:39.069Z,99674.63
2023-04-29T15:31:11.294Z,99675.75
2023-04-29T15:32:43.916Z,99676.59
2023-04-29T15:34:16.228Z,99673.16
2023-04-29T15:35:48.514Z,99670.59
2023-04-29T15:37:21.225Z,99672.38
2023-04-29T15:38:57.780Z,99666.16
2023-04-29T15:40:30.185Z,99664.59
2023-04-29T15:42:04.379Z,99668.09
2023-04-29T15:43:36.500Z,99674.00
2023-04-29T15:45:09.461Z,99662.88
2023-04-29T15:46:41.673Z,99661.19
2023-04-29T15:48:13.775Z,99650.97
2023-04-29T15:49:46.103Z,99659.47
2023-04-29T15:51:18.313Z,99658.59
2023-04-29T15:52:55.534Z,99661.31
2023-04-29T15:54:27.640Z,99663.13
2023-04-29T15:56:00.031Z,99663.22
2023-04-29T15:57:32.297Z,99654.53
2023-04-29T15:59:04.683Z,99659.69
2023-04-29T16:00:36.796Z,99664.06
2023-04-29T16:02:11.309Z,99662.34
2023-04-29T16:03:43.481Z,99658.91
2023-04-29T16:05:15.771Z,99659.88
2023-04-29T16:06:47.926Z,99657.34
2023-04-29T16:08:22.705Z,99656.50
2023-04-29T16:09:55.127Z,99647.72
2023-04-29T16:11:27.476Z,99655.50
2023-04-29T16:12:59.555Z,99642.50
2023-04-29T16:14:31.864Z,99640.84
2023-04-29T16:16:04.122Z,99640.00
2023-04-29T16:17:36.280Z,99639.22
2023-04-29T16:19:09.266Z,99649.72
2023-04-29T16:20:41.981Z,99647.09
2023-04-29T16:22:14.242Z,99642.88
2023-04-29T16:23:46.807Z,99637.63
2023-04-29T16:25:18.928Z,99648.09
2023-04-29T16:26:51.172Z,99647.22
2023-04-29T16:28:23.451Z,99646.47
2023-04-29T16:29:56.090Z,99647.41
2023-04-29T16:31:29.590Z,99647.34
2023-04-29T16:33:01.805Z,99649.75
2023-04-29T16:34:34.141Z,99646.56
2023-04-29T16:36:07.096Z,99653.63
2023-04-29T16:37:39.690Z,99648.53
2023-04-29T16:39:11.952Z,99647.75
2023-04-29T16:40:44.001Z,99653.03
2023-04-29T16:42:16.234Z,99649.69
2023-04-29T16:43:48.478Z,99655.06
2023-04-29T16:45:23.577Z,99651.72
2023-04-29T16:46:56.048Z,99642.25
2023-04-29T16:48:28.985Z,99643.94
2023-04-29T16:50:02.763Z,99643.09
2023-04-29T16:51:35.252Z,99644.09
2023-04-29T16:53:07.798Z,99640.69
2023-04-29T16:54:39.998Z,99640.81
2023-04-29T16:56:12.734Z,99640.94
2023-04-29T16:57:44.983Z,99641.06
2023-04-29T16:59:17.174Z,99648.19
2023-04-29T17:00:49.556Z,99648.28
2023-04-29T17:02:22.252Z,99644.84
2023-04-29T17:03:54.585Z,99644.94
2023-04-29T17:05:28.019Z,99643.31
2023-04-29T17:07:01.760Z,99649.22
2023-04-29T17:08:33.887Z,99653.75
2023-04-29T17:10:07.454Z,99646.72
2023-04-29T17:11:39.638Z,99648.59
2023-04-29T17:13:11.759Z,99642.56
2023-04-29T17:14:44.695Z,99640.03
2023-04-29T17:16:17.285Z,99634.88
2023-04-29T17:17:49.678Z,99635.91
2023-04-29T17:19:21.881Z,99636.88
2023-04-29T17:22:27.202Z,99628.63
2023-04-29T17:23:59.391Z,99641.53
2023-04-29T17:25:31.909Z,99642.53
2023-04-29T17:27:04.272Z,99646.03
2023-04-29T17:28:36.491Z,99640.03
2023-04-29T17:30:09.372Z,99642.63
2023-04-29T17:31:54.671Z,99643.66
2023-04-29T17:33:34.283Z,99642.81
2023-04-29T17:35:09.846Z,99644.50
2023-04-29T17:36:42.032Z,99643.84
2023-04-29T17:38:14.257Z,99648.31
2023-04-29T17:39:46.712Z,99648.44
2023-04-29T17:41:18.742Z,99651.25
2023-04-29T17:42:53.211Z,99658.28
2023-04-29T17:44:28.124Z,99652.19
2023-04-29T17:46:08.352Z,99656.59
2023-04-29T17:47:40.824Z,99659.41
2023-04-29T17:49:12.952Z,99655.16
2023-04-29T17:50:45.878Z,99656.91
2023-04-29T17:52:21.554Z,99656.91
2023-04-29T17:53:54.639Z,99656.97
2023-04-29T17:55:26.892Z,99654.53
2023-04-29T17:56:59.527Z,99661.63
2023-04-29T17:58:31.673Z,99660.88
2023-04-29T18:00:05.577Z,99662.72
2023-04-29T18:01:37.938Z,99662.06
2023-04-29T18:03:11.596Z,99664.72
2023-04-29T18:04:44.341Z,99663.03
2023-04-29T18:06:16.751Z,99657.91
2023-04-29T18:07:49.380Z,99662.41
2023-04-29T18:09:21.788Z,99664.22
2023-04-29T18:10:53.963Z,99663.34
2023-04-29T18:12:26.114Z,99663.34
2023-04-29T18:14:01.105Z,99666.75
2023-04-29T18:15:33.706Z,99668.50
2023-04-29T18:17:09.415Z,99671.06
2023-04-29T18:18:41.602Z,99668.50
2023-04-29T18:20:14.213Z,99671.13
2023-04-29T18:21:46.389Z,99672.84
2023-04-29T18:23:18.441Z,99673.72
2023-04-29T18:24:50.704Z,99672.94
2023-04-29T18:26:24.236Z,99678.13
2023-04-29T18:28:07.747Z,99678.19
2023-04-29T18:29:48.671Z,99676.44
2023-04-29T18:31:27.044Z,99671.25
2023-04-29T18:33:04.894Z,99681.53
2023-04-29T18:34:38.501Z,99678.13
2023-04-29T18:36:12.212Z,99676.53
2023-04-29T18:37:45.407Z,99680.97
2023-04-29T18:39:21.557Z,99677.72
2023-04-29T18:40:53.782Z,99675.97